sensor_id;sensor_type;location;lat;lon;timestamp;P1;durP1;ratioP1;P2;durP2;ratioP2
15194;SDS011;7698;42.478;23.756;2024-02-26T00:00:52;16.90;;;15.20;;
15194;SDS011;7698;42.478;23.756;2024-02-26T00:03:18;15.27;;;13.82;;
15194;SDS011;7698;42.478;23.756;2024-02-26T00:05:45;16.33;;;14.75;;
15194;SDS011;7698;42.478;23.756;2024-02-26T00:08:12;15.38;;;13.88;;
15194;SDS011;7698;42.478;23.756;2024-02-26T00:10:39;16.35;;;14.48;;
15194;SDS011;7698;42.478;23.756;2024-02-26T00:13:05;13.00;;;11.70;;
15194;SDS011;7698;42.478;23.756;2024-02-26T00:15:32;15.07;;;13.65;;
15194;SDS011;7698;42.478;23.756;2024-02-26T00:18:00;10.95;;;9.95;;
15194;SDS011;7698;42.478;23.756;2024-02-26T00:20:26;12.90;;;11.70;;
15194;SDS011;7698;42.478;23.756;2024-02-26T00:22:53;12.70;;;11.45;;
15194;SDS011;7698;42.478;23.756;2024-02-26T00:25:21;12.82;;;11.63;;
15194;SDS011;7698;42.478;23.756;2024-02-26T00:27:47;10.85;;;9.85;;
15194;SDS011;7698;42.478;23.756;2024-02-26T00:30:14;11.80;;;10.60;;
15194;SDS011;7698;42.478;23.756;2024-02-26T00:32:40;12.90;;;11.70;;
15194;SDS011;7698;42.478;23.756;2024-02-26T00:35:07;14.90;;;12.98;;
15194;SDS011;7698;42.478;23.756;2024-02-26T00:37:34;12.40;;;11.15;;
15194;SDS011;7698;42.478;23.756;2024-02-26T00:40:01;13.02;;;11.77;;
15194;SDS011;7698;42.478;23.756;2024-02-26T00:42:29;12.32;;;11.00;;
15194;SDS011;7698;42.478;23.756;2024-02-26T00:44:55;12.93;;;11.73;;
15194;SDS011;7698;42.478;23.756;2024-02-26T00:47:22;11.80;;;10.70;;
15194;SDS011;7698;42.478;23.756;2024-02-26T00:49:48;11.98;;;10.32;;
15194;SDS011;7698;42.478;23.756;2024-02-26T00:52:15;11.43;;;10.32;;
15194;SDS011;7698;42.478;23.756;2024-02-26T00:54:41;15.45;;;13.85;;
15194;SDS011;7698;42.478;23.756;2024-02-26T00:57:08;17.13;;;14.98;;
15194;SDS011;7698;42.478;23.756;2024-02-26T00:59:36;19.02;;;15.68;;
15194;SDS011;7698;42.478;23.756;2024-02-26T01:02:03;17.55;;;15.77;;
15194;SDS011;7698;42.478;23.756;2024-02-26T01:04:31;16.55;;;14.80;;
15194;SDS011;7698;42.478;23.756;2024-02-26T01:06:59;11.98;;;10.88;;
15194;SDS011;7698;42.478;23.756;2024-02-26T01:09:25;14.85;;;13.35;;
15194;SDS011;7698;42.478;23.756;2024-02-26T01:11:52;15.23;;;13.60;;
15194;SDS011;7698;42.478;23.756;2024-02-26T01:14:18;13.00;;;11.73;;
15194;SDS011;7698;42.478;23.756;2024-02-26T01:16:46;15.68;;;13.98;;
15194;SDS011;7698;42.478;23.756;2024-02-26T01:19:13;15.48;;;13.77;;
15194;SDS011;7698;42.478;23.756;2024-02-26T01:21:39;14.15;;;12.77;;
15194;SDS011;7698;42.478;23.756;2024-02-26T01:24:06;16.52;;;14.82;;
15194;SDS011;7698;42.478;23.756;2024-02-26T01:26:32;13.30;;;11.82;;
15194;SDS011;7698;42.478;23.756;2024-02-26T01:28:59;11.65;;;10.48;;
15194;SDS011;7698;42.478;23.756;2024-02-26T01:31:25;15.15;;;13.55;;
15194;SDS011;7698;42.478;23.756;2024-02-26T01:33:53;11.23;;;10.00;;
15194;SDS011;7698;42.478;23.756;2024-02-26T01:36:20;12.82;;;11.52;;
15194;SDS011;7698;42.478;23.756;2024-02-26T01:38:46;13.98;;;12.57;;
15194;SDS011;7698;42.478;23.756;2024-02-26T01:41:13;11.73;;;10.30;;
15194;SDS011;7698;42.478;23.756;2024-02-26T01:43:39;11.18;;;10.18;;
15194;SDS011;7698;42.478;23.756;2024-02-26T01:46:05;9.93;;;8.93;;
15194;SDS011;7698;42.478;23.756;2024-02-26T01:48:32;11.00;;;9.90;;
15194;SDS011;7698;42.478;23.756;2024-02-26T01:51:00;10.30;;;9.20;;
15194;SDS011;7698;42.478;23.756;2024-02-26T01:53:28;12.02;;;10.80;;
15194;SDS011;7698;42.478;23.756;2024-02-26T01:55:55;9.07;;;8.18;;
15194;SDS011;7698;42.478;23.756;2024-02-26T01:58:21;10.57;;;9.50;;
15194;SDS011;7698;42.478;23.756;2024-02-26T02:00:48;10.85;;;9.77;;
15194;SDS011;7698;42.478;23.756;2024-02-26T02:03:14;11.15;;;10.02;;
15194;SDS011;7698;42.478;23.756;2024-02-26T02:05:41;8.85;;;7.97;;
15194;SDS011;7698;42.478;23.756;2024-02-26T02:08:10;7.65;;;6.80;;
15194;SDS011;7698;42.478;23.756;2024-02-26T02:10:36;6.28;;;5.75;;
15194;SDS011;7698;42.478;23.756;2024-02-26T02:13:04;7.32;;;6.45;;
15194;SDS011;7698;42.478;23.756;2024-02-26T02:15:30;8.45;;;6.55;;
15194;SDS011;7698;42.478;23.756;2024-02-26T02:17:57;7.72;;;6.97;;
15194;SDS011;7698;42.478;23.756;2024-02-26T02:20:26;8.82;;;6.45;;
15194;SDS011;7698;42.478;23.756;2024-02-26T02:22:53;6.38;;;5.78;;
15194;SDS011;7698;42.478;23.756;2024-02-26T02:25:19;6.82;;;6.13;;
15194;SDS011;7698;42.478;23.756;2024-02-26T02:27:46;6.00;;;5.50;;
15194;SDS011;7698;42.478;23.756;2024-02-26T02:30:12;5.90;;;5.40;;
15194;SDS011;7698;42.478;23.756;2024-02-26T02:32:40;5.65;;;5.15;;
15194;SDS011;7698;42.478;23.756;2024-02-26T02:35:07;5.38;;;4.95;;
15194;SDS011;7698;42.478;23.756;2024-02-26T02:37:35;5.20;;;4.70;;
15194;SDS011;7698;42.478;23.756;2024-02-26T02:40:02;6.05;;;4.80;;
15194;SDS011;7698;42.478;23.756;2024-02-26T02:42:29;6.43;;;5.82;;
15194;SDS011;7698;42.478;23.756;2024-02-26T02:44:55;5.97;;;5.43;;
15194;SDS011;7698;42.478;23.756;2024-02-26T02:47:22;5.00;;;4.57;;
15194;SDS011;7698;42.478;23.756;2024-02-26T02:49:49;5.55;;;5.00;;
15194;SDS011;7698;42.478;23.756;2024-02-26T02:52:15;5.55;;;4.60;;
15194;SDS011;7698;42.478;23.756;2024-02-26T02:54:43;4.68;;;4.28;;
15194;SDS011;7698;42.478;23.756;2024-02-26T02:57:10;4.88;;;4.40;;
15194;SDS011;7698;42.478;23.756;2024-02-26T02:59:37;4.20;;;3.83;;
15194;SDS011;7698;42.478;23.756;2024-02-26T03:02:03;3.92;;;3.63;;
15194;SDS011;7698;42.478;23.756;2024-02-26T03:04:31;5.65;;;4.35;;
15194;SDS011;7698;42.478;23.756;2024-02-26T03:06:58;3.92;;;3.53;;
15194;SDS011;7698;42.478;23.756;2024-02-26T03:09:25;5.15;;;3.70;;
15194;SDS011;7698;42.478;23.756;2024-02-26T03:11:53;4.78;;;4.30;;
15194;SDS011;7698;42.478;23.756;2024-02-26T03:14:19;3.35;;;2.97;;
15194;SDS011;7698;42.478;23.756;2024-02-26T03:16:46;3.65;;;3.35;;
15194;SDS011;7698;42.478;23.756;2024-02-26T03:19:14;2.58;;;2.38;;
15194;SDS011;7698;42.478;23.756;2024-02-26T03:21:40;2.78;;;2.58;;
15194;SDS011;7698;42.478;23.756;2024-02-26T03:24:07;3.30;;;3.00;;
15194;SDS011;7698;42.478;23.756;2024-02-26T03:26:35;2.65;;;2.45;;
15194;SDS011;7698;42.478;23.756;2024-02-26T03:29:03;3.38;;;2.60;;
15194;SDS011;7698;42.478;23.756;2024-02-26T03:31:29;3.40;;;3.10;;
15194;SDS011;7698;42.478;23.756;2024-02-26T03:33:56;3.58;;;3.28;;
15194;SDS011;7698;42.478;23.756;2024-02-26T03:36:23;3.28;;;2.92;;
15194;SDS011;7698;42.478;23.756;2024-02-26T03:38:49;3.60;;;3.20;;
15194;SDS011;7698;42.478;23.756;2024-02-26T03:41:16;3.83;;;3.53;;
15194;SDS011;7698;42.478;23.756;2024-02-26T03:43:42;4.80;;;4.30;;
15194;SDS011;7698;42.478;23.756;2024-02-26T03:46:11;4.10;;;3.70;;
15194;SDS011;7698;42.478;23.756;2024-02-26T03:48:39;6.57;;;4.57;;
15194;SDS011;7698;42.478;23.756;2024-02-26T03:51:05;4.93;;;4.43;;
15194;SDS011;7698;42.478;23.756;2024-02-26T03:53:32;4.88;;;3.83;;
15194;SDS011;7698;42.478;23.756;2024-02-26T03:56:02;5.20;;;4.60;;
15194;SDS011;7698;42.478;23.756;2024-02-26T03:58:29;3.78;;;3.47;;
15194;SDS011;7698;42.478;23.756;2024-02-26T04:00:55;4.32;;;3.80;;
15194;SDS011;7698;42.478;23.756;2024-02-26T04:03:23;3.92;;;3.53;;
15194;SDS011;7698;42.478;23.756;2024-02-26T04:05:50;4.88;;;4.47;;
15194;SDS011;7698;42.478;23.756;2024-02-26T04:08:17;4.18;;;3.78;;
15194;SDS011;7698;42.478;23.756;2024-02-26T04:10:43;4.65;;;4.15;;
15194;SDS011;7698;42.478;23.756;2024-02-26T04:13:10;4.55;;;4.15;;
15194;SDS011;7698;42.478;23.756;2024-02-26T04:15:37;5.28;;;4.70;;
15194;SDS011;7698;42.478;23.756;2024-02-26T04:18:04;4.88;;;4.45;;
15194;SDS011;7698;42.478;23.756;2024-02-26T04:20:31;5.63;;;5.13;;
15194;SDS011;7698;42.478;23.756;2024-02-26T04:22:58;5.82;;;5.22;;
15194;SDS011;7698;42.478;23.756;2024-02-26T04:25:25;6.22;;;5.50;;
15194;SDS011;7698;42.478;23.756;2024-02-26T04:27:52;4.50;;;4.10;;
15194;SDS011;7698;42.478;23.756;2024-02-26T04:30:18;4.93;;;4.53;;
15194;SDS011;7698;42.478;23.756;2024-02-26T04:32:45;4.95;;;4.53;;
15194;SDS011;7698;42.478;23.756;2024-02-26T04:35:11;5.43;;;5.03;;
15194;SDS011;7698;42.478;23.756;2024-02-26T04:37:39;5.15;;;4.68;;
15194;SDS011;7698;42.478;23.756;2024-02-26T04:40:06;5.03;;;4.57;;
15194;SDS011;7698;42.478;23.756;2024-02-26T04:42:33;4.45;;;4.05;;
15194;SDS011;7698;42.478;23.756;2024-02-26T04:44:59;5.32;;;4.82;;
15194;SDS011;7698;42.478;23.756;2024-02-26T04:47:26;4.80;;;4.40;;
15194;SDS011;7698;42.478;23.756;2024-02-26T04:49:52;5.03;;;4.10;;
15194;SDS011;7698;42.478;23.756;2024-02-26T04:52:19;4.57;;;4.18;;
15194;SDS011;7698;42.478;23.756;2024-02-26T04:54:47;4.85;;;4.45;;
15194;SDS011;7698;42.478;23.756;2024-02-26T04:57:13;5.00;;;3.67;;
15194;SDS011;7698;42.478;23.756;2024-02-26T04:59:40;4.85;;;4.38;;
15194;SDS011;7698;42.478;23.756;2024-02-26T05:02:07;4.43;;;4.03;;
15194;SDS011;7698;42.478;23.756;2024-02-26T05:04:34;4.97;;;4.38;;
15194;SDS011;7698;42.478;23.756;2024-02-26T05:07:01;9.23;;;7.07;;
15194;SDS011;7698;42.478;23.756;2024-02-26T05:09:27;6.38;;;5.70;;
15194;SDS011;7698;42.478;23.756;2024-02-26T05:11:55;5.35;;;4.95;;
15194;SDS011;7698;42.478;23.756;2024-02-26T05:14:22;7.82;;;5.40;;
15194;SDS011;7698;42.478;23.756;2024-02-26T05:16:49;5.70;;;4.90;;
15194;SDS011;7698;42.478;23.756;2024-02-26T05:19:15;4.35;;;4.03;;
15194;SDS011;7698;42.478;23.756;2024-02-26T05:21:42;5.32;;;4.82;;
15194;SDS011;7698;42.478;23.756;2024-02-26T05:24:09;5.05;;;4.63;;
15194;SDS011;7698;42.478;23.756;2024-02-26T05:26:35;5.20;;;4.75;;
15194;SDS011;7698;42.478;23.756;2024-02-26T05:29:04;5.57;;;4.97;;
15194;SDS011;7698;42.478;23.756;2024-02-26T05:31:30;4.95;;;4.45;;
15194;SDS011;7698;42.478;23.756;2024-02-26T05:33:57;6.03;;;5.47;;
15194;SDS011;7698;42.478;23.756;2024-02-26T05:36:23;6.88;;;5.57;;
15194;SDS011;7698;42.478;23.756;2024-02-26T05:38:51;5.88;;;5.38;;
15194;SDS011;7698;42.478;23.756;2024-02-26T05:41:17;6.05;;;5.45;;
15194;SDS011;7698;42.478;23.756;2024-02-26T05:43:48;6.00;;;5.40;;
15194;SDS011;7698;42.478;23.756;2024-02-26T05:46:17;7.63;;;6.93;;
15194;SDS011;7698;42.478;23.756;2024-02-26T05:48:44;7.28;;;6.65;;
15194;SDS011;7698;42.478;23.756;2024-02-26T05:51:11;7.28;;;6.63;;
15194;SDS011;7698;42.478;23.756;2024-02-26T05:53:37;7.75;;;7.00;;
15194;SDS011;7698;42.478;23.756;2024-02-26T05:56:04;8.55;;;6.93;;
15194;SDS011;7698;42.478;23.756;2024-02-26T05:58:30;7.20;;;6.57;;
15194;SDS011;7698;42.478;23.756;2024-02-26T06:00:57;6.47;;;5.88;;
15194;SDS011;7698;42.478;23.756;2024-02-26T06:03:26;6.22;;;5.72;;
15194;SDS011;7698;42.478;23.756;2024-02-26T06:05:53;5.95;;;5.32;;
15194;SDS011;7698;42.478;23.756;2024-02-26T06:08:20;5.55;;;5.07;;
15194;SDS011;7698;42.478;23.756;2024-02-26T06:10:46;6.03;;;5.43;;
15194;SDS011;7698;42.478;23.756;2024-02-26T06:13:13;5.00;;;4.60;;
15194;SDS011;7698;42.478;23.756;2024-02-26T06:15:39;7.65;;;5.70;;
15194;SDS011;7698;42.478;23.756;2024-02-26T06:18:06;7.63;;;6.47;;
15194;SDS011;7698;42.478;23.756;2024-02-26T06:20:35;6.65;;;5.97;;
15194;SDS011;7698;42.478;23.756;2024-02-26T06:23:01;5.55;;;5.05;;
15194;SDS011;7698;42.478;23.756;2024-02-26T06:25:28;6.90;;;6.13;;
15194;SDS011;7698;42.478;23.756;2024-02-26T06:27:54;6.05;;;5.50;;
15194;SDS011;7698;42.478;23.756;2024-02-26T06:30:21;5.28;;;4.78;;
15194;SDS011;7698;42.478;23.756;2024-02-26T06:32:47;6.60;;;5.90;;
15194;SDS011;7698;42.478;23.756;2024-02-26T06:35:14;7.53;;;6.72;;
15194;SDS011;7698;42.478;23.756;2024-02-26T06:37:42;7.10;;;6.40;;
15194;SDS011;7698;42.478;23.756;2024-02-26T06:40:09;8.18;;;7.35;;
15194;SDS011;7698;42.478;23.756;2024-02-26T06:42:35;8.77;;;7.97;;
15194;SDS011;7698;42.478;23.756;2024-02-26T06:45:03;7.40;;;6.80;;
15194;SDS011;7698;42.478;23.756;2024-02-26T06:47:30;8.48;;;7.68;;
15194;SDS011;7698;42.478;23.756;2024-02-26T06:49:56;9.38;;;8.38;;
15194;SDS011;7698;42.478;23.756;2024-02-26T06:52:23;9.75;;;8.80;;
15194;SDS011;7698;42.478;23.756;2024-02-26T06:54:52;9.60;;;8.70;;
15194;SDS011;7698;42.478;23.756;2024-02-26T06:57:19;8.55;;;7.75;;
15194;SDS011;7698;42.478;23.756;2024-02-26T06:59:46;8.70;;;7.80;;
15194;SDS011;7698;42.478;23.756;2024-02-26T07:02:12;8.70;;;7.85;;
15194;SDS011;7698;42.478;23.756;2024-02-26T07:04:39;8.75;;;7.80;;
15194;SDS011;7698;42.478;23.756;2024-02-26T07:07:05;9.45;;;7.72;;
15194;SDS011;7698;42.478;23.756;2024-02-26T07:09:32;8.02;;;7.32;;
15194;SDS011;7698;42.478;23.756;2024-02-26T07:12:00;9.30;;;8.35;;
15194;SDS011;7698;42.478;23.756;2024-02-26T07:14:27;8.10;;;7.40;;
15194;SDS011;7698;42.478;23.756;2024-02-26T07:16:53;8.75;;;7.97;;
15194;SDS011;7698;42.478;23.756;2024-02-26T07:19:20;9.30;;;8.43;;
15194;SDS011;7698;42.478;23.756;2024-02-26T07:21:46;9.23;;;8.27;;
15194;SDS011;7698;42.478;23.756;2024-02-26T07:24:13;8.50;;;7.80;;
15194;SDS011;7698;42.478;23.756;2024-02-26T07:26:39;8.63;;;7.82;;
15194;SDS011;7698;42.478;23.756;2024-02-26T07:29:07;10.52;;;8.90;;
15194;SDS011;7698;42.478;23.756;2024-02-26T07:31:34;9.10;;;8.30;;
15194;SDS011;7698;42.478;23.756;2024-02-26T07:34:00;8.70;;;7.80;;
15194;SDS011;7698;42.478;23.756;2024-02-26T07:36:27;8.38;;;7.65;;
15194;SDS011;7698;42.478;23.756;2024-02-26T07:38:53;6.63;;;6.07;;
15194;SDS011;7698;42.478;23.756;2024-02-26T07:41:20;6.80;;;6.15;;
15194;SDS011;7698;42.478;23.756;2024-02-26T07:43:46;7.80;;;7.03;;
15194;SDS011;7698;42.478;23.756;2024-02-26T07:46:15;6.60;;;6.00;;
15194;SDS011;7698;42.478;23.756;2024-02-26T07:48:41;7.03;;;6.30;;
15194;SDS011;7698;42.478;23.756;2024-02-26T07:51:08;8.02;;;5.78;;
15194;SDS011;7698;42.478;23.756;2024-02-26T07:53:34;8.63;;;6.88;;
15194;SDS011;7698;42.478;23.756;2024-02-26T07:56:01;7.55;;;5.93;;
15194;SDS011;7698;42.478;23.756;2024-02-26T07:58:28;6.85;;;6.03;;
15194;SDS011;7698;42.478;23.756;2024-02-26T08:00:55;8.13;;;7.43;;
15194;SDS011;7698;42.478;23.756;2024-02-26T08:03:22;8.32;;;7.55;;
15194;SDS011;7698;42.478;23.756;2024-02-26T08:05:49;9.15;;;8.25;;
15194;SDS011;7698;42.478;23.756;2024-02-26T08:08:15;7.53;;;6.82;;
15194;SDS011;7698;42.478;23.756;2024-02-26T08:10:42;8.07;;;7.15;;
15194;SDS011;7698;42.478;23.756;2024-02-26T08:13:08;7.78;;;5.80;;
15194;SDS011;7698;42.478;23.756;2024-02-26T08:15:35;7.32;;;6.63;;
15194;SDS011;7698;42.478;23.756;2024-02-26T08:18:02;7.70;;;6.72;;
15194;SDS011;7698;42.478;23.756;2024-02-26T08:20:30;7.47;;;6.78;;
15194;SDS011;7698;42.478;23.756;2024-02-26T08:22:57;6.85;;;6.20;;
15194;SDS011;7698;42.478;23.756;2024-02-26T08:25:23;6.22;;;5.72;;
15194;SDS011;7698;42.478;23.756;2024-02-26T08:27:50;6.18;;;5.57;;
15194;SDS011;7698;42.478;23.756;2024-02-26T08:30:17;8.57;;;6.95;;
15194;SDS011;7698;42.478;23.756;2024-02-26T08:32:43;8.57;;;7.55;;
15194;SDS011;7698;42.478;23.756;2024-02-26T08:35:10;7.50;;;6.78;;
15194;SDS011;7698;42.478;23.756;2024-02-26T08:37:38;8.93;;;5.75;;
15194;SDS011;7698;42.478;23.756;2024-02-26T08:40:05;7.30;;;6.38;;
15194;SDS011;7698;42.478;23.756;2024-02-26T08:42:32;9.00;;;7.63;;
15194;SDS011;7698;42.478;23.756;2024-02-26T08:44:58;7.35;;;6.72;;
15194;SDS011;7698;42.478;23.756;2024-02-26T08:47:26;7.20;;;6.50;;
15194;SDS011;7698;42.478;23.756;2024-02-26T08:49:53;7.15;;;6.55;;
15194;SDS011;7698;42.478;23.756;2024-02-26T08:52:19;7.30;;;6.70;;
15194;SDS011;7698;42.478;23.756;2024-02-26T08:54:48;8.18;;;6.45;;
15194;SDS011;7698;42.478;23.756;2024-02-26T08:57:14;5.93;;;5.43;;
15194;SDS011;7698;42.478;23.756;2024-02-26T08:59:41;7.10;;;6.50;;
15194;SDS011;7698;42.478;23.756;2024-02-26T09:02:08;6.47;;;5.97;;
15194;SDS011;7698;42.478;23.756;2024-02-26T09:04:34;7.57;;;5.97;;
15194;SDS011;7698;42.478;23.756;2024-02-26T09:07:01;6.63;;;5.95;;
15194;SDS011;7698;42.478;23.756;2024-02-26T09:09:28;7.38;;;6.78;;
15194;SDS011;7698;42.478;23.756;2024-02-26T09:11:56;6.22;;;5.35;;
15194;SDS011;7698;42.478;23.756;2024-02-26T09:14:23;6.50;;;5.35;;
15194;SDS011;7698;42.478;23.756;2024-02-26T09:16:50;6.93;;;6.22;;
15194;SDS011;7698;42.478;23.756;2024-02-26T09:19:16;6.63;;;6.03;;
15194;SDS011;7698;42.478;23.756;2024-02-26T09:21:43;6.80;;;6.10;;
15194;SDS011;7698;42.478;23.756;2024-02-26T09:24:09;5.97;;;5.40;;
15194;SDS011;7698;42.478;23.756;2024-02-26T09:26:36;5.93;;;5.35;;
15194;SDS011;7698;42.478;23.756;2024-02-26T09:29:04;6.13;;;5.60;;
15194;SDS011;7698;42.478;23.756;2024-02-26T09:31:33;6.82;;;5.65;;
15194;SDS011;7698;42.478;23.756;2024-02-26T09:34:00;5.05;;;4.65;;
15194;SDS011;7698;42.478;23.756;2024-02-26T09:36:26;5.05;;;4.43;;
15194;SDS011;7698;42.478;23.756;2024-02-26T09:38:53;5.07;;;4.68;;
15194;SDS011;7698;42.478;23.756;2024-02-26T09:41:20;9.35;;;5.32;;
15194;SDS011;7698;42.478;23.756;2024-02-26T09:43:47;5.60;;;5.10;;
15194;SDS011;7698;42.478;23.756;2024-02-26T09:46:16;7.57;;;4.32;;
15194;SDS011;7698;42.478;23.756;2024-02-26T09:48:45;5.00;;;4.55;;
15194;SDS011;7698;42.478;23.756;2024-02-26T09:51:13;5.03;;;4.53;;
15194;SDS011;7698;42.478;23.756;2024-02-26T09:53:40;7.72;;;4.50;;
15194;SDS011;7698;42.478;23.756;2024-02-26T09:56:10;4.80;;;4.40;;
15194;SDS011;7698;42.478;23.756;2024-02-26T09:58:37;4.63;;;4.22;;
15194;SDS011;7698;42.478;23.756;2024-02-26T10:01:05;10.02;;;4.10;;
15194;SDS011;7698;42.478;23.756;2024-02-26T10:03:37;4.50;;;3.78;;
15194;SDS011;7698;42.478;23.756;2024-02-26T10:06:05;4.05;;;3.75;;
15194;SDS011;7698;42.478;23.756;2024-02-26T10:08:32;5.88;;;4.55;;
15194;SDS011;7698;42.478;23.756;2024-02-26T10:10:58;6.00;;;4.45;;
15194;SDS011;7698;42.478;23.756;2024-02-26T10:13:25;6.68;;;4.50;;
15194;SDS011;7698;42.478;23.756;2024-02-26T10:15:52;4.63;;;4.20;;
15194;SDS011;7698;42.478;23.756;2024-02-26T10:18:18;4.72;;;4.28;;
15194;SDS011;7698;42.478;23.756;2024-02-26T10:21:00;4.80;;;4.40;;
15194;SDS011;7698;42.478;23.756;2024-02-26T10:23:26;7.63;;;4.53;;
15194;SDS011;7698;42.478;23.756;2024-02-26T10:25:53;4.28;;;3.88;;
15194;SDS011;7698;42.478;23.756;2024-02-26T10:28:20;4.07;;;3.72;;
15194;SDS011;7698;42.478;23.756;2024-02-26T10:30:47;4.70;;;3.85;;
15194;SDS011;7698;42.478;23.756;2024-02-26T10:33:13;4.50;;;4.07;;
15194;SDS011;7698;42.478;23.756;2024-02-26T10:35:44;4.45;;;3.92;;
15194;SDS011;7698;42.478;23.756;2024-02-26T10:38:13;5.18;;;4.13;;
15194;SDS011;7698;42.478;23.756;2024-02-26T10:40:42;5.72;;;3.45;;
15194;SDS011;7698;42.478;23.756;2024-02-26T10:43:09;3.50;;;3.22;;
15194;SDS011;7698;42.478;23.756;2024-02-26T10:45:35;4.85;;;4.40;;
15194;SDS011;7698;42.478;23.756;2024-02-26T10:48:02;4.40;;;4.00;;
15194;SDS011;7698;42.478;23.756;2024-02-26T10:50:28;4.45;;;4.05;;
15194;SDS011;7698;42.478;23.756;2024-02-26T10:52:55;5.38;;;4.88;;
15194;SDS011;7698;42.478;23.756;2024-02-26T10:55:23;4.35;;;3.78;;
15194;SDS011;7698;42.478;23.756;2024-02-26T10:57:51;6.40;;;4.05;;
15194;SDS011;7698;42.478;23.756;2024-02-26T11:00:19;4.30;;;3.90;;
15194;SDS011;7698;42.478;23.756;2024-02-26T11:02:45;4.32;;;3.90;;
15194;SDS011;7698;42.478;23.756;2024-02-26T11:05:12;4.47;;;4.03;;
15194;SDS011;7698;42.478;23.756;2024-02-26T11:07:39;3.92;;;3.42;;
15194;SDS011;7698;42.478;23.756;2024-02-26T11:10:07;5.03;;;3.72;;
15194;SDS011;7698;42.478;23.756;2024-02-26T11:12:37;5.68;;;3.50;;
15194;SDS011;7698;42.478;23.756;2024-02-26T11:15:05;4.15;;;3.70;;
15194;SDS011;7698;42.478;23.756;2024-02-26T11:17:32;3.78;;;3.47;;
15194;SDS011;7698;42.478;23.756;2024-02-26T11:19:59;3.58;;;2.83;;
15194;SDS011;7698;42.478;23.756;2024-02-26T11:22:27;5.40;;;3.38;;
15194;SDS011;7698;42.478;23.756;2024-02-26T11:24:54;4.82;;;3.22;;
15194;SDS011;7698;42.478;23.756;2024-02-26T11:27:24;4.10;;;3.70;;
15194;SDS011;7698;42.478;23.756;2024-02-26T11:29:52;4.80;;;3.58;;
15194;SDS011;7698;42.478;23.756;2024-02-26T11:32:22;3.85;;;3.00;;
15194;SDS011;7698;42.478;23.756;2024-02-26T11:34:49;3.25;;;2.95;;
15194;SDS011;7698;42.478;23.756;2024-02-26T11:37:16;4.97;;;3.65;;
15194;SDS011;7698;42.478;23.756;2024-02-26T11:39:43;4.28;;;3.55;;
15194;SDS011;7698;42.478;23.756;2024-02-26T11:42:13;4.25;;;3.85;;
15194;SDS011;7698;42.478;23.756;2024-02-26T11:44:39;4.88;;;3.38;;
15194;SDS011;7698;42.478;23.756;2024-02-26T11:47:11;5.38;;;3.60;;
15194;SDS011;7698;42.478;23.756;2024-02-26T11:49:38;4.18;;;3.55;;
15194;SDS011;7698;42.478;23.756;2024-02-26T11:52:05;4.07;;;3.65;;
15194;SDS011;7698;42.478;23.756;2024-02-26T11:57:20;4.72;;;3.90;;
15194;SDS011;7698;42.478;23.756;2024-02-26T11:59:45;4.82;;;4.30;;
15194;SDS011;7698;42.478;23.756;2024-02-26T12:02:18;3.40;;;3.10;;
15194;SDS011;7698;42.478;23.756;2024-02-26T12:05:00;3.75;;;3.28;;
15194;SDS011;7698;42.478;23.756;2024-02-26T12:07:26;3.17;;;2.85;;
15194;SDS011;7698;42.478;23.756;2024-02-26T12:09:56;4.20;;;3.20;;
15194;SDS011;7698;42.478;23.756;2024-02-26T12:12:39;4.15;;;3.58;;
15194;SDS011;7698;42.478;23.756;2024-02-26T12:15:06;3.42;;;3.10;;
15194;SDS011;7698;42.478;23.756;2024-02-26T12:17:37;3.58;;;3.03;;
15194;SDS011;7698;42.478;23.756;2024-02-26T12:20:09;3.45;;;3.10;;
15194;SDS011;7698;42.478;23.756;2024-02-26T12:22:36;3.33;;;2.70;;
15194;SDS011;7698;42.478;23.756;2024-02-26T12:25:04;3.40;;;3.10;;
15194;SDS011;7698;42.478;23.756;2024-02-26T12:27:31;3.38;;;3.08;;
15194;SDS011;7698;42.478;23.756;2024-02-26T12:29:58;4.10;;;3.05;;
15194;SDS011;7698;42.478;23.756;2024-02-26T12:32:24;4.32;;;2.65;;
15194;SDS011;7698;42.478;23.756;2024-02-26T12:34:52;4.30;;;2.90;;
15194;SDS011;7698;42.478;23.756;2024-02-26T12:37:19;3.70;;;2.97;;
15194;SDS011;7698;42.478;23.756;2024-02-26T12:39:45;3.40;;;2.63;;
15194;SDS011;7698;42.478;23.756;2024-02-26T12:42:12;4.40;;;2.55;;
15194;SDS011;7698;42.478;23.756;2024-02-26T12:44:38;3.05;;;2.75;;
15194;SDS011;7698;42.478;23.756;2024-02-26T12:47:05;3.05;;;2.67;;
15194;SDS011;7698;42.478;23.756;2024-02-26T12:49:32;4.50;;;2.63;;
15194;SDS011;7698;42.478;23.756;2024-02-26T12:52:00;5.13;;;2.95;;
15194;SDS011;7698;42.478;23.756;2024-02-26T12:54:27;4.03;;;2.67;;
15194;SDS011;7698;42.478;23.756;2024-02-26T12:56:54;2.40;;;2.20;;
15194;SDS011;7698;42.478;23.756;2024-02-26T12:59:21;4.50;;;2.85;;
15194;SDS011;7698;42.478;23.756;2024-02-26T13:01:47;2.80;;;2.10;;
15194;SDS011;7698;42.478;23.756;2024-02-26T13:04:14;3.28;;;2.67;;
15194;SDS011;7698;42.478;23.756;2024-02-26T13:06:41;3.13;;;2.80;;
15194;SDS011;7698;42.478;23.756;2024-02-26T13:09:10;3.47;;;2.53;;
15194;SDS011;7698;42.478;23.756;2024-02-26T13:11:39;3.35;;;2.67;;
15194;SDS011;7698;42.478;23.756;2024-02-26T13:14:05;3.65;;;2.55;;
15194;SDS011;7698;42.478;23.756;2024-02-26T13:16:32;3.20;;;2.30;;
15194;SDS011;7698;42.478;23.756;2024-02-26T13:19:07;4.50;;;2.85;;
15194;SDS011;7698;42.478;23.756;2024-02-26T13:21:34;4.65;;;3.00;;
15194;SDS011;7698;42.478;23.756;2024-02-26T13:24:00;2.85;;;2.50;;
15194;SDS011;7698;42.478;23.756;2024-02-26T13:26:29;3.55;;;2.83;;
15194;SDS011;7698;42.478;23.756;2024-02-26T13:28:59;3.63;;;2.58;;
15194;SDS011;7698;42.478;23.756;2024-02-26T13:31:26;3.45;;;2.60;;
15194;SDS011;7698;42.478;23.756;2024-02-26T13:33:52;3.78;;;3.38;;
15194;SDS011;7698;42.478;23.756;2024-02-26T13:36:21;5.10;;;3.20;;
15194;SDS011;7698;42.478;23.756;2024-02-26T13:38:51;3.60;;;2.88;;
15194;SDS011;7698;42.478;23.756;2024-02-26T13:41:17;4.47;;;2.83;;
15194;SDS011;7698;42.478;23.756;2024-02-26T13:43:46;4.07;;;3.15;;
15194;SDS011;7698;42.478;23.756;2024-02-26T13:46:12;4.38;;;3.05;;
15194;SDS011;7698;42.478;23.756;2024-02-26T13:48:40;3.97;;;2.90;;
15194;SDS011;7698;42.478;23.756;2024-02-26T13:51:07;3.20;;;2.78;;
15194;SDS011;7698;42.478;23.756;2024-02-26T13:53:34;3.50;;;3.20;;
15194;SDS011;7698;42.478;23.756;2024-02-26T13:56:00;2.45;;;2.20;;
15194;SDS011;7698;42.478;23.756;2024-02-26T13:58:29;3.00;;;2.80;;
15194;SDS011;7698;42.478;23.756;2024-02-26T14:00:57;7.80;;;3.33;;
15194;SDS011;7698;42.478;23.756;2024-02-26T14:03:24;4.13;;;2.92;;
15194;SDS011;7698;42.478;23.756;2024-02-26T14:05:51;4.00;;;3.03;;
15194;SDS011;7698;42.478;23.756;2024-02-26T14:08:18;6.03;;;3.33;;
15194;SDS011;7698;42.478;23.756;2024-02-26T14:10:45;3.03;;;2.72;;
15194;SDS011;7698;42.478;23.756;2024-02-26T14:13:11;6.03;;;2.97;;
15194;SDS011;7698;42.478;23.756;2024-02-26T14:15:38;4.18;;;3.65;;
15194;SDS011;7698;42.478;23.756;2024-02-26T14:18:06;4.57;;;3.22;;
15194;SDS011;7698;42.478;23.756;2024-02-26T14:20:33;3.97;;;3.40;;
15194;SDS011;7698;42.478;23.756;2024-02-26T14:23:00;3.95;;;3.45;;
15194;SDS011;7698;42.478;23.756;2024-02-26T14:25:27;4.05;;;3.45;;
15194;SDS011;7698;42.478;23.756;2024-02-26T14:27:53;4.18;;;3.30;;
15194;SDS011;7698;42.478;23.756;2024-02-26T14:30:20;3.65;;;2.90;;
15194;SDS011;7698;42.478;23.756;2024-02-26T14:32:47;3.88;;;2.70;;
15194;SDS011;7698;42.478;23.756;2024-02-26T14:35:15;3.08;;;2.58;;
15194;SDS011;7698;42.478;23.756;2024-02-26T14:37:42;4.03;;;2.80;;
15194;SDS011;7698;42.478;23.756;2024-02-26T14:40:11;4.43;;;3.10;;
15194;SDS011;7698;42.478;23.756;2024-02-26T14:42:39;5.10;;;3.63;;
15194;SDS011;7698;42.478;23.756;2024-02-26T14:45:06;3.97;;;2.72;;